^^
Grace C. Lehan Memorial Weather Station Historical Data
Daily Summary for June 3, 2021 Units:  English    Metric   Both
Daily Weekly Monthly Yearly
  High: Low: Average:
Temperature: 74.7 °F 55.2 °F 65.1 °F
Dew Point: 59.9 °F 51.9 °F 55.4 °F
Humidity: 90% 52.1% 72%
Wind Speed: 5.4mph 0mph 0.7mph
Wind Gust: 13mph - -
Wind- - West
Pressure: 29.99 in 29.93 in -
Precipitation: 0.00 in    
 
 
Tabular Data for June 3, 2021
Time Temperature Dew Point Pressure Wind Wind Speed Wind Gust Humidity Rainfall Rate (Hourly) solar
00:09 60.3 °F 52.7 °F 29.95 in Calm     76% 0.00 in 0 W/m2
00:14 60.1 °F 52.7 °F 29.95 in Calm   1 mph 76.5% 0.00 in 0 W/m2
00:19 59.9 °F 52.7 °F 29.95 in Calm   1 mph 77% 0.00 in 0 W/m2
00:24 59.8 °F 52.5 °F 29.95 in Calm   1 mph 77% 0.00 in 0 W/m2
00:29 59.6 °F 52.4 °F 29.95 in Calm   1 mph 77.1% 0.00 in 0 W/m2
00:34 59.5 °F 52.8 °F 29.95 in Calm   1 mph 78.5% 0.00 in 0 W/m2
00:39 59.3 °F 52.8 °F 29.95 in Calm     79% 0.00 in 0 W/m2
00:44 59.1 °F 52.6 °F 29.95 in Calm     79% 0.00 in 0 W/m2
00:49 58.9 °F 52.6 °F 29.95 in Calm     79.4% 0.00 in 0 W/m2
00:54 58.8 °F 52.7 °F 29.95 in Calm     80% 0.00 in 0 W/m2
00:59 58.7 °F 52.6 °F 29.95 in Calm     80% 0.00 in 0 W/m2
01:04 58.6 °F 52.5 °F 29.95 in Calm     80.1% 0.00 in 0 W/m2
01:09 58.4 °F 52.6 °F 29.95 in Calm     81% 0.00 in 0 W/m2
01:14 58.2 °F 52.4 °F 29.95 in Calm     81% 0.00 in 0 W/m2
01:19 58.1 °F 52.3 °F 29.95 in Calm     81% 0.00 in 0 W/m2
01:24 57.9 °F 52.4 °F 29.95 in Calm     81.9% 0.00 in 0 W/m2
01:29 57.7 °F 52.3 °F 29.95 in Calm     82% 0.00 in 0 W/m2
01:34 57.6 °F 52.1 °F 29.95 in Calm     82% 0.00 in 0 W/m2
01:39 57.4 °F 52.3 °F 29.95 in Calm     83% 0.00 in 0 W/m2
01:44 57.3 °F 52.2 °F 29.94 in Calm     83.2% 0.00 in 0 W/m2
01:49 57.1 °F 52.3 °F 29.94 in Calm     84% 0.00 in 0 W/m2
01:54 56.9 °F 52.4 °F 29.94 in Calm     84.7% 0.00 in 0 W/m2
01:59 56.8 °F 52.4 °F 29.94 in Calm     85% 0.00 in 0 W/m2
02:04 56.7 °F 52.3 °F 29.95 in Calm     85% 0.00 in 0 W/m2
02:09 56.7 °F 52.7 °F 29.95 in Calm     86.2% 0.00 in 0 W/m2
02:14 56.9 °F 53.1 °F 29.95 in Calm     87% 0.00 in 0 W/m2
02:19 56.9 °F 52.9 °F 29.95 in Calm     86.7% 0.00 in 0 W/m2
02:24 56.8 °F 52.7 °F 29.95 in Calm     86% 0.00 in 0 W/m2
02:29 56.8 °F 52.6 °F 29.95 in Calm     86% 0.00 in 0 W/m2
02:34 56.8 °F 52.6 °F 29.95 in Calm     86% 0.00 in 0 W/m2
02:39 56.8 °F 52.8 °F 29.95 in Calm     86.4% 0.00 in 0 W/m2
02:44 57 °F 53.2 °F 29.95 in Calm     87% 0.00 in 0 W/m2
02:49 57.2 °F 53.3 °F 29.95 in Calm     87% 0.00 in 0 W/m2
02:54 57.2 °F 53.3 °F 29.95 in Calm     86.8% 0.00 in 0 W/m2
02:59 57.2 °F 53.2 °F 29.95 in Calm     86.6% 0.00 in 0 W/m2
03:04 57.2 °F 53.1 °F 29.95 in Calm     86% 0.00 in 0 W/m2
03:09 57.3 °F 53.1 °F 29.95 in Calm     86% 0.00 in 0 W/m2
03:14 57.3 °F 53.2 °F 29.95 in Calm     86% 0.00 in 0 W/m2
03:19 57.5 °F 53.3 °F 29.95 in Calm     86% 0.00 in 0 W/m2
03:24 57.5 °F 53.2 °F 29.95 in Calm     85.5% 0.00 in 0 W/m2
03:29 57.6 °F 53.2 °F 29.95 in Calm     85% 0.00 in 0 W/m2
03:34 57.7 °F 53.2 °F 29.95 in NNW 0.8 mph 5 mph 85% 0.00 in 0 W/m2
03:39 57.8 °F 53.2 °F 29.95 in NNW 0.6 mph 5 mph 84.6% 0.00 in 0 W/m2
03:44 57.8 °F 53 °F 29.95 in NW 1.8 mph 11 mph 84% 0.00 in 0 W/m2
03:49 57.8 °F 53 °F 29.94 in North 0.3 mph 11 mph 84% 0.00 in 0 W/m2
03:54 57.9 °F 53.1 °F 29.94 in Calm   11 mph 84% 0.00 in 0 W/m2
03:59 57.9 °F 53.1 °F 29.94 in Calm   11 mph 84% 0.00 in 0 W/m2
04:00 57.9 °F 53.1 °F 29.94 in Calm   11 mph 84% 0.00 in 0 W/m2
04:09 57.9 °F 53 °F 29.94 in Calm     83.6% 0.00 in 0 W/m2
04:14 57.8 °F 53 °F 29.94 in NW 0.6 mph 6 mph 84% 0.00 in 0 W/m2
04:19 57.8 °F 52.9 °F 29.94 in NW 0.2 mph 6 mph 83.8% 0.00 in 0 W/m2
04:24 57.7 °F 52.9 °F 29.94 in Calm   6 mph 84% 0.00 in 0 W/m2
04:29 57.6 °F 52.8 °F 29.94 in NW 0.2 mph 6 mph 84% 0.00 in 0 W/m2
04:34 57.5 °F 52.8 °F 29.94 in Calm   6 mph 84% 0.00 in 0 W/m2
04:39 57.5 °F 52.7 °F 29.94 in Calm     84% 0.00 in 0 W/m2
04:44 57.3 °F 52.5 °F 29.94 in Calm     84% 0.00 in 0 W/m2
04:49 57.2 °F 52.5 °F 29.94 in Calm     84% 0.00 in 0 W/m2
04:54 57.1 °F 52.5 °F 29.94 in Calm     84.4% 0.00 in 0 W/m2
04:59 57 °F 52.6 °F 29.94 in Calm     85% 0.00 in 0 W/m2
05:04 56.9 °F 52.4 °F 29.94 in Calm     84.7% 0.00 in 0 W/m2
05:09 56.8 °F 52.4 °F 29.95 in Calm     85% 0.00 in 0 W/m2
05:14 56.7 °F 52.2 °F 29.95 in Calm     85% 0.00 in 0 W/m2
05:19 56.5 °F 52.1 °F 29.95 in Calm     85.2% 0.00 in 0 W/m2
05:24 56.3 °F 52 °F 29.95 in Calm     85.5% 0.00 in 0 W/m2
05:29 56.2 °F 52 °F 29.95 in Calm     86% 0.00 in 0 W/m2
05:34 56 °F 52.1 °F 29.95 in Calm     86.5% 0.00 in 0 W/m2
05:39 56 °F 52.2 °F 29.95 in Calm     87% 0.00 in 0 W/m2
05:44 55.8 °F 52 °F 29.95 in Calm   1 mph 87% 0.00 in 0 W/m2
05:49 55.9 °F 52.3 °F 29.95 in Calm   1 mph 87.8% 0.00 in 0 W/m2
05:54 55.9 °F 52.3 °F 29.95 in Calm   1 mph 87.6% 0.00 in 0 W/m2
05:59 55.8 °F 52 °F 29.95 in Calm   1 mph 87% 0.00 in 0 W/m2
06:04 55.7 °F 52 °F 29.95 in Calm   1 mph 87.5% 0.00 in 0 W/m2
06:09 55.6 °F 52.1 °F 29.95 in Calm     88% 0.00 in 0 W/m2
06:14 55.5 °F 52 °F 29.95 in Calm     88% 0.00 in 0 W/m2
06:19 55.5 °F 52 °F 29.95 in Calm     88% 0.00 in 0 W/m2
06:24 55.4 °F 51.9 °F 29.95 in Calm     88% 0.00 in 0 W/m2
06:29 55.4 °F 51.9 °F 29.95 in Calm     88% 0.00 in 5 W/m2
06:34 55.4 °F 52.1 °F 29.96 in Calm     88.7% 0.00 in 7 W/m2
06:39 55.4 °F 52.2 °F 29.96 in Calm     89% 0.00 in 7 W/m2
06:44 55.3 °F 52.1 °F 29.96 in Calm     89% 0.00 in 12 W/m2
06:49 55.3 °F 52.1 °F 29.96 in Calm     89% 0.00 in 14 W/m2
06:54 55.2 °F 52 °F 29.97 in Calm     89% 0.00 in 14 W/m2
06:59 55.2 °F 52 °F 29.97 in Calm     89% 0.00 in 14 W/m2
07:04 55.2 °F 52.1 °F 29.97 in Calm     89.4% 0.00 in 16 W/m2
07:09 55.2 °F 52.3 °F 29.97 in Calm     90% 0.00 in 18 W/m2
07:14 55.2 °F 52.3 °F 29.97 in Calm     90% 0.00 in 21 W/m2
07:19 55.3 °F 52.4 °F 29.97 in Calm     90% 0.00 in 21 W/m2
07:24 55.3 °F 52.5 °F 29.97 in Calm     90% 0.00 in 21 W/m2
07:29 55.5 °F 52.7 °F 29.97 in Calm     90% 0.00 in 21 W/m2
07:34 55.8 °F 52.9 °F 29.98 in Calm     90% 0.00 in 21 W/m2
07:39 56.1 °F 53.2 °F 29.98 in NW 0.1 mph 2 mph 90% 0.00 in 23 W/m2
07:44 56.4 °F 53.4 °F 29.98 in Calm   2 mph 89.7% 0.00 in 25 W/m2
07:49 56.7 °F 53.5 °F 29.98 in NW 0.1 mph 2 mph 89% 0.00 in 30 W/m2
07:54 57 °F 53.7 °F 29.98 in NW 0.2 mph 3 mph 88.9% 0.00 in 33 W/m2
07:59 57.3 °F 53.8 °F 29.98 in NNE 0.1 mph 3 mph 88% 0.00 in 39 W/m2
08:00 57.5 °F 54 °F 29.98 in Calm   3 mph 88% 0.00 in 39 W/m2
08:09 58 °F 53.8 °F 29.98 in Calm     86% 0.00 in 63 W/m2
08:14 58.4 °F 54 °F 29.98 in Calm     85.5% 0.00 in 63 W/m2
08:19 58.7 °F 54.2 °F 29.98 in NNE 0.3 mph 4 mph 85% 0.00 in 134 W/m2
08:24 59.1 °F 54.6 °F 29.98 in Calm   4 mph 84.8% 0.00 in 371 W/m2
08:29 59.7 °F 54.8 °F 29.98 in Calm   4 mph 84% 0.00 in 390 W/m2
08:34 60.5 °F 55.6 °F 29.98 in NNE 0.1 mph 4 mph 83.7% 0.00 in 408 W/m2
08:39 61.7 °F 56.2 °F 29.98 in Calm   2 mph 82.1% 0.00 in 425 W/m2
08:44 62.8 °F 56.5 °F 29.98 in North 0.4 mph 3 mph 79.8% 0.00 in 439 W/m2
08:49 63.9 °F 56.6 °F 29.98 in NE 0.1 mph 3 mph 77.1% 0.00 in 457 W/m2
08:54 64.8 °F 57.1 °F 29.98 in Calm   3 mph 76.3% 0.00 in 475 W/m2
08:59 65.7 °F 57.1 °F 29.98 in East 0.3 mph 5 mph 73.8% 0.00 in 492 W/m2
09:04 66.5 °F 57 °F 29.98 in East 0.4 mph 5 mph 71.5% 0.00 in 506 W/m2
09:09 67.1 °F 57.8 °F 29.98 in NE 0.1 mph 3 mph 72% 0.00 in 520 W/m2
09:14 67.7 °F 57.8 °F 29.98 in NW 1.1 mph 5 mph 70.4% 0.00 in 536 W/m2
09:19 68.2 °F 57.9 °F 29.98 in NW 0.7 mph 5 mph 69.6% 0.00 in 550 W/m2
09:24 68.7 °F 58.5 °F 29.98 in North 0.3 mph 5 mph 69.8% 0.00 in 564 W/m2
09:29 69 °F 58.2 °F 29.98 in North 0.1 mph 5 mph 68.3% 0.00 in 580 W/m2
09:34 69.1 °F 58.2 °F 29.98 in North 0.9 mph 5 mph 68.1% 0.00 in 596 W/m2
09:39 69.3 °F 58.3 °F 29.98 in NE 0.3 mph 4 mph 68% 0.00 in 608 W/m2
09:44 69.6 °F 58.4 °F 29.98 in ENE 0.2 mph 4 mph 67.6% 0.00 in 624 W/m2
09:49 69.9 °F 58.9 °F 29.98 in Calm   4 mph 68.1% 0.00 in 636 W/m2
09:54 70.4 °F 59.5 °F 29.98 in NNW 1.2 mph 6 mph 68.5% 0.00 in 650 W/m2
09:59 70.9 °F 59.2 °F 29.98 in ENE 0.3 mph 6 mph 66.4% 0.00 in 663 W/m2
10:04 71.3 °F 59.3 °F 29.98 in NW 1.1 mph 7 mph 65.8% 0.00 in 677 W/m2
10:09 71.8 °F 59.3 °F 29.98 in North 1.3 mph 7 mph 64.8% 0.00 in 691 W/m2
10:14 72 °F 58.7 °F 29.98 in NE 1 mph 7 mph 62.9% 0.00 in 700 W/m2
10:19 72 °F 58.9 °F 29.98 in NW 1.5 mph 9 mph 63.3% 0.00 in 712 W/m2
10:24 71.9 °F 58.4 °F 29.98 in ENE 0.7 mph 9 mph 62.4% 0.00 in 731 W/m2
10:29 72.1 °F 59.9 °F 29.98 in NNE 0.9 mph 9 mph 65.3% 0.00 in 782 W/m2
10:34 72.6 °F 59.4 °F 29.98 in NNE 0.7 mph 9 mph 63.2% 0.00 in 812 W/m2
10:39 73 °F 59.1 °F 29.98 in NNW 2.1 mph 11 mph 61.8% 0.00 in 812 W/m2
10:44 73.4 °F 59.4 °F 29.98 in NW 2.6 mph 11 mph 61.6% 0.00 in 798 W/m2
10:49 73.7 °F 58.9 °F 29.98 in NW 2.7 mph 11 mph 60% 0.00 in 842 W/m2
10:54 73.9 °F 59.1 °F 29.98 in NW 2.4 mph 11 mph 60% 0.00 in 872 W/m2
10:59 73.6 °F 58.6 °F 29.98 in NNW 0.8 mph 11 mph 59.3% 0.00 in 872 W/m2
11:04 73 °F 58.3 °F 29.97 in NW 2.6 mph 11 mph 60% 0.00 in 881 W/m2
11:09 72.5 °F 58.8 °F 29.97 in WNW 2.8 mph 10 mph 62% 0.00 in 911 W/m2
11:14 72.4 °F 58.3 °F 29.97 in WNW 4 mph 10 mph 61.2% 0.00 in 1011 W/m2
11:19 72.5 °F 58.4 °F 29.97 in NW 1.3 mph 10 mph 61.2% 0.00 in 241 W/m2
11:24 72.2 °F 58 °F 29.97 in NW 0.8 mph 10 mph 61% 0.00 in 137 W/m2
11:29 71.8 °F 57.7 °F 29.97 in NW 2.1 mph 10 mph 61.3% 0.00 in 940 W/m2
11:34 71.5 °F 58.2 °F 29.97 in NW 1.9 mph 10 mph 62.7% 0.00 in 972 W/m2
11:39 72 °F 58.9 °F 29.97 in NW 1.4 mph 6 mph 63.3% 0.00 in 1041 W/m2
11:44 72.7 °F 58.5 °F 29.97 in NW 1.5 mph 7 mph 61% 0.00 in 1041 W/m2
11:49 73.1 °F 57.6 °F 29.97 in NW 3.8 mph 11 mph 58.2% 0.00 in 1018 W/m2
11:54 72.7 °F 56.4 °F 29.96 in NW 4 mph 11 mph 56.7% 0.00 in 932 W/m2
11:59 72.3 °F 56.8 °F 29.96 in North 1.1 mph 11 mph 58.2% 0.00 in 946 W/m2
12:00 72.3 °F 56.7 °F 29.96 in Calm   11 mph 58% 0.00 in 925 W/m2
12:09 72.8 °F 57.6 °F 29.96 in NNW 1.4 mph 12 mph 58.9% 0.00 in 179 W/m2
12:14 73 °F 58.1 °F 29.96 in NNW 1 mph 12 mph 59.6% 0.00 in 227 W/m2
12:19 73.1 °F 57 °F 29.96 in North 2.1 mph 12 mph 57.1% 0.00 in 223 W/m2
12:24 72.9 °F 56.6 °F 29.96 in NNE 1.5 mph 12 mph 56.7% 0.00 in 304 W/m2
12:29 72.5 °F 56.1 °F 29.95 in North 0.3 mph 12 mph 56.3% 0.00 in 209 W/m2
12:34 72.3 °F 57.3 °F 29.95 in NW 1.8 mph 12 mph 59.3% 0.00 in 223 W/m2
12:39 72.3 °F 56.8 °F 29.95 in WNW 2.3 mph 10 mph 58.2% 0.00 in 287 W/m2
12:44 72.5 °F 56.9 °F 29.95 in NW 4.1 mph 11 mph 58% 0.00 in 239 W/m2
12:49 72.5 °F 56.5 °F 29.95 in WNW 3.1 mph 11 mph 57.2% 0.00 in 232 W/m2
12:54 72.4 °F 56.7 °F 29.95 in NNW 1.1 mph 11 mph 57.6% 0.00 in 232 W/m2
12:59 72.5 °F 56.7 °F 29.95 in NE 1.3 mph 11 mph 57.5% 0.00 in 251 W/m2
13:04 72.4 °F 56.7 °F 29.95 in NE 0.5 mph 11 mph 57.8% 0.00 in 251 W/m2
13:09 72.3 °F 57 °F 29.95 in NNE 1.3 mph 6 mph 58.5% 0.00 in 686 W/m2
13:14 72.3 °F 56.7 °F 29.95 in North 0.2 mph 6 mph 58% 0.00 in 204 W/m2
13:18 72.3 °F 56.8 °F 29.95 in NE 1.4 mph 9 mph 58.2% 0.00 in 186 W/m2
13:24 72.2 °F 57.1 °F 29.95 in NW 1.1 mph 9 mph 59% 0.00 in 1081 W/m2
13:29 72.6 °F 57.6 °F 29.95 in NNW 3.4 mph 12 mph 59.4% 0.00 in 1081 W/m2
13:34 72.8 °F 56.5 °F 29.95 in NNW 0.6 mph 12 mph 56.7% 0.00 in 169 W/m2
13:39 72.4 °F 56.2 °F 29.95 in NNW 2.7 mph 12 mph 56.7% 0.00 in 234 W/m2
13:44 72.1 °F 56.7 °F 29.95 in NNW 1.1 mph 12 mph 58.3% 0.00 in 466 W/m2
13:49 72.2 °F 57.1 °F 29.95 in NW 3.1 mph 12 mph 59.2% 0.00 in 272 W/m2
13:54 72.3 °F 57.2 °F 29.95 in NNW 2.6 mph 12 mph 59% 0.00 in 390 W/m2
13:59 72.4 °F 56.8 °F 29.95 in NNW 0.8 mph 12 mph 58% 0.00 in 390 W/m2
14:04 72.4 °F 57.1 °F 29.95 in NW 0.3 mph 12 mph 58.6% 0.00 in 207 W/m2
14:09 72.5 °F 57.6 °F 29.95 in WNW 1 mph 8 mph 59.5% 0.00 in 221 W/m2
14:14 72.6 °F 57.8 °F 29.95 in NNW 2.4 mph 9 mph 59.6% 0.00 in 990 W/m2
14:19 72.8 °F 57.4 °F 29.95 in NW 1.8 mph 9 mph 58.5% 0.00 in 990 W/m2
14:24 72.9 °F 56.6 °F 29.94 in NW 3 mph 13 mph 56.6% 0.00 in 357 W/m2
14:29 72.8 °F 56.1 °F 29.94 in North 0.3 mph 13 mph 55.9% 0.00 in 199 W/m2
14:34 72.6 °F 56.5 °F 29.94 in North 0.8 mph 13 mph 56.9% 0.00 in 279 W/m2
14:39 72.6 °F 57.1 °F 29.94 in NNW 1.6 mph 6 mph 58.2% 0.00 in 394 W/m2
14:44 72.7 °F 57.1 °F 29.94 in NNW 2 mph 9 mph 58% 0.00 in 318 W/m2
14:49 72.7 °F 56.6 °F 29.94 in NNW 1.1 mph 9 mph 57% 0.00 in 192 W/m2
14:54 72.7 °F 57.2 °F 29.94 in NNW 0.1 mph 9 mph 58.2% 0.00 in 965 W/m2
14:59 72.9 °F 56.8 °F 29.94 in NNW 1.8 mph 9 mph 57% 0.00 in 965 W/m2
15:04 73.1 °F 55.9 °F 29.94 in NW 2.6 mph 9 mph 54.7% 0.00 in 983 W/m2
15:09 73.3 °F 55.8 °F 29.94 in NW 2.5 mph 9 mph 54.3% 0.00 in 865 W/m2
15:14 73.7 °F 57 °F 29.93 in NW 1.6 mph 9 mph 56% 0.00 in 942 W/m2
15:19 74.1 °F 56.7 °F 29.93 in NNW 0.8 mph 9 mph 54.5% 0.00 in 942 W/m2
15:24 74.5 °F 57.6 °F 29.93 in NNW 0.5 mph 9 mph 55.5% 0.00 in 279 W/m2
15:29 74.7 °F 56.9 °F 29.93 in NNW 3.5 mph 11 mph 53.8% 0.00 in 162 W/m2
15:34 74.4 °F 55.7 °F 29.94 in NW 2.5 mph 11 mph 52.1% 0.00 in 148 W/m2
15:39 73.9 °F 56.2 °F 29.94 in NNW 3.6 mph 9 mph 53.9% 0.00 in 132 W/m2
15:44 73.5 °F 56.1 °F 29.94 in NW 2.2 mph 9 mph 54.5% 0.00 in 744 W/m2
15:49 73.4 °F 56 °F 29.94 in NW 2.6 mph 9 mph 54.5% 0.00 in 782 W/m2
15:54 73.6 °F 56.2 °F 29.94 in WNW 1.6 mph 9 mph 54.4% 0.00 in 782 W/m2
15:59 73.6 °F 55.6 °F 29.94 in WNW 1.1 mph 9 mph 53.3% 0.00 in 120 W/m2
16:00 73.5 °F 56.4 °F 29.94 in Calm   9 mph 55% 0.00 in 97 W/m2
16:09 73.2 °F 55.3 °F 29.94 in NW 0.6 mph 4 mph 53.6% 0.00 in 83 W/m2
16:14 73 °F 55.8 °F 29.94 in NW 1 mph 5 mph 54.8% 0.00 in 63 W/m2
16:19 72.7 °F 55.5 °F 29.94 in NW 1.9 mph 7 mph 54.7% 0.00 in 62 W/m2
16:24 72.6 °F 56 °F 29.94 in NNW 1.2 mph 7 mph 56.1% 0.00 in 93 W/m2
16:29 72.7 °F 56 °F 29.94 in NW 1.9 mph 9 mph 55.7% 0.00 in 93 W/m2
16:34 72.9 °F 55.3 °F 29.94 in WNW 2.7 mph 9 mph 54.1% 0.00 in 62 W/m2
16:39 73 °F 55.5 °F 29.94 in WNW 2.2 mph 10 mph 54.3% 0.00 in 37 W/m2
16:44 73 °F 55.8 °F 29.94 in West 1.5 mph 10 mph 54.8% 0.00 in 39 W/m2
16:49 73.1 °F 56.3 °F 29.94 in WNW 1.2 mph 10 mph 55.6% 0.00 in 63 W/m2
16:54 73.1 °F 56.5 °F 29.94 in WNW 2.3 mph 10 mph 56% 0.00 in 63 W/m2
16:59 73.3 °F 56.2 °F 29.94 in NNW 2.2 mph 10 mph 55.2% 0.00 in 76 W/m2
17:04 73.4 °F 56.6 °F 29.94 in West 2.1 mph 10 mph 55.7% 0.00 in 90 W/m2
17:09 73.6 °F 56 °F 29.94 in WNW 5.4 mph 12 mph 54.2% 0.00 in 90 W/m2
17:14 73.6 °F 55.8 °F 29.94 in NW 3.3 mph 12 mph 53.6% 0.00 in 63 W/m2
17:19 73.6 °F 56.3 °F 29.94 in NNW 2.5 mph 12 mph 54.7% 0.00 in 54 W/m2
17:24 73.6 °F 56.2 °F 29.94 in NNW 2 mph 12 mph 54.4% 0.00 in 49 W/m2
17:29 73.6 °F 56 °F 29.94 in NW 2.3 mph 12 mph 54% 0.00 in 69 W/m2
17:34 73.5 °F 55.8 °F 29.94 in NNW 0.6 mph 12 mph 53.7% 0.00 in 62 W/m2
17:39 73.5 °F 55.9 °F 29.94 in NNW 2 mph 7 mph 54.2% 0.00 in 60 W/m2
17:44 73.3 °F 55.6 °F 29.94 in NW 3.8 mph 10 mph 53.8% 0.00 in 25 W/m2
17:49 73 °F 55.9 °F 29.94 in NNW 1.3 mph 10 mph 55% 0.00 in 25 W/m2
17:54 72.9 °F 56.4 °F 29.94 in NNW 1.7 mph 10 mph 56.3% 0.00 in 23 W/m2
17:59 72.5 °F 55.1 °F 29.94 in WNW 1.7 mph 10 mph 54.3% 0.00 in 21 W/m2
18:04 72.2 °F 55.1 °F 29.94 in NW 0.5 mph 10 mph 54.8% 0.00 in 21 W/m2
18:09 72 °F 55.2 °F 29.94 in NNW 1 mph 7 mph 55.5% 0.00 in 21 W/m2
18:14 71.9 °F 55.2 °F 29.94 in NNW 2.3 mph 7 mph 55.7% 0.00 in 21 W/m2
18:19 71.7 °F 55.6 °F 29.94 in NW 1.4 mph 7 mph 56.8% 0.00 in 19 W/m2
18:24 71.5 °F 55.8 °F 29.94 in WNW 0.6 mph 7 mph 57.6% 0.00 in 19 W/m2
18:29 71.3 °F 55.8 °F 29.94 in WNW 0.8 mph 7 mph 58% 0.00 in 16 W/m2
18:34 71.1 °F 55.7 °F 29.94 in WNW 0.5 mph 7 mph 58.2% 0.00 in 16 W/m2
18:39 70.9 °F 55.6 °F 29.94 in WNW 0.5 mph 5 mph 58.5% 0.00 in 16 W/m2
18:44 70.7 °F 56 °F 29.94 in WNW 0.5 mph 5 mph 59.7% 0.00 in 14 W/m2
18:49 70.5 °F 56 °F 29.94 in WNW 0.1 mph 5 mph 60% 0.00 in 12 W/m2
18:54 70.4 °F 56 °F 29.94 in WNW 0.5 mph 5 mph 60.4% 0.00 in 11 W/m2
18:59 70.1 °F 56 °F 29.94 in Calm   5 mph 60.8% 0.00 in 9 W/m2
19:04 69.9 °F 56.1 °F 29.94 in Calm   5 mph 61.5% 0.00 in 7 W/m2
19:09 69.7 °F 56.5 °F 29.95 in WNW 0.3 mph 3 mph 62.7% 0.00 in 5 W/m2
19:14 69.5 °F 56.8 °F 29.94 in Calm   3 mph 64% 0.00 in 0 W/m2
19:19 69.2 °F 56.5 °F 29.95 in Calm   3 mph 64% 0.00 in 0 W/m2
19:24 68.9 °F 56.4 °F 29.95 in Calm   3 mph 64.4% 0.00 in 0 W/m2
19:29 68.7 °F 56.4 °F 29.95 in Calm   3 mph 65% 0.00 in 0 W/m2
19:34 68.4 °F 56.6 °F 29.96 in Calm   3 mph 65.9% 0.00 in 0 W/m2
19:39 68.1 °F 56.7 °F 29.96 in Calm     66.9% 0.00 in 0 W/m2
19:44 67.8 °F 56.9 °F 29.96 in Calm     68% 0.00 in 0 W/m2
19:49 67.5 °F 56.9 °F 29.96 in Calm     68.7% 0.00 in 0 W/m2
19:54 67.2 °F 56.9 °F 29.96 in Calm     69.3% 0.00 in 0 W/m2
19:59 66.9 °F 56.9 °F 29.96 in Calm     70.1% 0.00 in 0 W/m2
20:00 66.7 °F 57 °F 29.96 in Calm     71% 0.00 in 0 W/m2
20:09 66.2 °F 57.2 °F 29.97 in Calm     72.9% 0.00 in 0 W/m2
20:14 65.9 °F 57 °F 29.97 in Calm     73% 0.00 in 0 W/m2
20:19 65.5 °F 56.9 °F 29.97 in Calm     73.7% 0.00 in 0 W/m2
20:24 65.2 °F 56.8 °F 29.97 in Calm     74.3% 0.00 in 0 W/m2
20:29 64.9 °F 56.5 °F 29.97 in Calm     74% 0.00 in 0 W/m2
20:34 64.7 °F 56.6 °F 29.97 in Calm     74.9% 0.00 in 0 W/m2
20:39 64.6 °F 56.6 °F 29.97 in Calm     75.2% 0.00 in 0 W/m2
20:44 64.5 °F 56.7 °F 29.98 in Calm     75.8% 0.00 in 0 W/m2
20:49 64.4 °F 56.6 °F 29.98 in Calm     76% 0.00 in 0 W/m2
20:54 64.2 °F 56.5 °F 29.98 in Calm     76% 0.00 in 0 W/m2
20:59 64.1 °F 56.8 °F 29.98 in Calm     77% 0.00 in 0 W/m2
21:04 64 °F 56.6 °F 29.98 in Calm     77% 0.00 in 0 W/m2
21:09 63.8 °F 56.3 °F 29.98 in Calm     76.6% 0.00 in 0 W/m2
21:14 63.6 °F 56.1 °F 29.98 in Calm     76.5% 0.00 in 0 W/m2
21:19 63.6 °F 56.3 °F 29.98 in Calm     77% 0.00 in 0 W/m2
21:24 63.5 °F 56.2 °F 29.98 in Calm     77% 0.00 in 0 W/m2
21:29 63.4 °F 56.1 °F 29.98 in Calm     77% 0.00 in 0 W/m2
21:34 63.3 °F 56.2 °F 29.98 in Calm   1 mph 77.7% 0.00 in 0 W/m2
21:39 63.2 °F 56.2 °F 29.98 in WNW 0.1 mph 3 mph 78% 0.00 in 0 W/m2
21:44 63 °F 56.1 °F 29.98 in Calm   3 mph 78% 0.00 in 0 W/m2
21:49 62.9 °F 56.2 °F 29.98 in WNW 0.2 mph 3 mph 78.8% 0.00 in 0 W/m2
21:54 62.8 °F 56.2 °F 29.98 in Calm   3 mph 79% 0.00 in 0 W/m2
21:59 62.7 °F 56.2 °F 29.98 in Calm   3 mph 79.2% 0.00 in 0 W/m2
22:04 62.7 °F 56.4 °F 29.98 in Calm   3 mph 80% 0.00 in 0 W/m2
22:09 62.6 °F 56.4 °F 29.98 in Calm     80% 0.00 in 0 W/m2
22:14 62.6 °F 56.3 °F 29.98 in Calm     80% 0.00 in 0 W/m2
22:19 62.5 °F 56.3 °F 29.98 in Calm     80% 0.00 in 0 W/m2
22:24 62.4 °F 56.4 °F 29.98 in Calm   1 mph 80.6% 0.00 in 0 W/m2
22:29 62.3 °F 56.4 °F 29.99 in WNW 0.1 mph 3 mph 81% 0.00 in 0 W/m2
22:34 62.2 °F 56.3 °F 29.98 in Calm   3 mph 81% 0.00 in 0 W/m2
22:39 62.1 °F 56.2 °F 29.98 in Calm   1 mph 81% 0.00 in 0 W/m2
22:44 62 °F 56.2 °F 29.98 in WNW 0.5 mph 4 mph 81% 0.00 in 0 W/m2
22:49 62 °F 56.1 °F 29.99 in WNW 0.3 mph 4 mph 81% 0.00 in 0 W/m2
22:54 62 °F 56.1 °F 29.99 in WNW 0.4 mph 4 mph 81% 0.00 in 0 W/m2
22:59 62 °F 56.1 °F 29.99 in WNW 0.1 mph 4 mph 81% 0.00 in 0 W/m2
23:04 62 °F 56.1 °F 29.99 in WNW 0.1 mph 4 mph 81% 0.00 in 0 W/m2
23:09 62.1 °F 56.2 °F 29.99 in WNW 0.2 mph 3 mph 81% 0.00 in 0 W/m2
23:14 62.1 °F 56.2 °F 29.99 in WNW 0.9 mph 6 mph 81% 0.00 in 0 W/m2
23:19 62.2 °F 56.3 °F 29.99 in WNW 1.6 mph 6 mph 81% 0.00 in 0 W/m2
23:24 62.2 °F 56.3 °F 29.99 in WNW 0.6 mph 6 mph 81% 0.00 in 0 W/m2
23:29 62.3 °F 56.4 °F 29.99 in WNW 0.3 mph 7 mph 81% 0.00 in 0 W/m2
23:34 62.4 °F 56.5 °F 29.99 in WNW 1.4 mph 7 mph 81% 0.00 in 0 W/m2
23:39 62.5 °F 56.6 °F 29.99 in WNW 1.4 mph 7 mph 81% 0.00 in 0 W/m2
23:44 62.5 °F 56.6 °F 29.99 in WNW 1.6 mph 7 mph 81% 0.00 in 0 W/m2
23:49 62.6 °F 56.7 °F 29.99 in WNW 1 mph 7 mph 81% 0.00 in 0 W/m2
23:54 62.6 °F 56.7 °F 29.99 in West 1 mph 7 mph 81% 0.00 in 0 W/m2
23:59 62.5 °F 56.6 °F 29.99 in WNW 1.8 mph 12 mph 81% 0.00 in 0 W/m2
Hartford County Weather
Compliments of Weather Underground - 2 mb